Time;durP1;ratioP1;P1;durP2;ratioP2;P2;SDS_P1;SDS_P2;PMS_P1;PMS_P2;Temp;Humidity;BMP_temperature;BMP_pressure;BME280_temperature;BME280_humidity;BME280_pressure;Samples;Min_cycle;Max_cycle;Signal;HPM_P1;HPM_P2
2023/01/05 00:04:23;;;;;;;26.25;9.40;;;;;;;9.78;100.00;101478.75;10442443;28;20104;-82
2023/01/05 00:09:23;;;;;;;17.25;5.18;;;;;;;9.75;100.00;101475.94;10466578;28;20037;-81
2023/01/05 00:25:10;;;;;;;22.17;5.82;;;;;;;9.73;100.00;101477.56;10472992;28;20071;-81
2023/01/05 00:30:14;;;;;;;27.30;6.60;;;;;;;9.63;100.00;101483.03;10459849;28;20036;-81
2023/01/05 00:35:15;;;;;;;18.23;5.07;;;;;;;9.58;100.00;101471.38;10465508;28;20481;-79
2023/01/05 00:40:19;;;;;;;25.58;6.22;;;;;;;9.53;100.00;101486.78;10435276;28;20036;-81
2023/01/05 00:45:20;;;;;;;19.90;8.18;;;;;;;9.50;100.00;101492.72;10459546;28;20047;-81
2023/01/05 00:50:21;;;;;;;22.00;5.28;;;;;;;9.52;100.00;101488.50;10463559;28;20040;-81
2023/01/05 00:55:22;;;;;;;23.98;8.27;;;;;;;9.44;100.00;101475.75;10452715;28;20032;-80
2023/01/05 01:00:22;;;;;;;27.77;6.22;;;;;;;9.38;100.00;101481.50;10474677;28;20119;-80
2023/01/05 01:05:23;;;;;;;34.35;12.25;;;;;;;9.21;100.00;101477.81;10459167;28;20120;-80
2023/01/05 01:10:24;;;;;;;24.42;7.07;;;;;;;8.93;100.00;101489.13;10455939;28;20055;-81
2023/01/05 01:15:24;;;;;;;20.25;7.43;;;;;;;8.90;100.00;101496.75;10479006;28;20046;-81
2023/01/05 01:20:25;;;;;;;24.58;10.38;;;;;;;8.78;100.00;101494.28;10454537;28;20120;-80
2023/01/05 01:25:26;;;;;;;26.90;7.72;;;;;;;8.72;100.00;101499.97;10454463;28;20124;-81
2023/01/05 01:30:26;;;;;;;20.80;6.45;;;;;;;8.54;100.00;101522.25;10459804;28;20033;-81
2023/01/05 01:35:27;;;;;;;27.83;7.90;;;;;;;8.41;100.00;101515.31;10469541;28;20121;-81
2023/01/05 01:40:27;;;;;;;30.85;7.72;;;;;;;8.33;100.00;101504.34;10473030;28;20519;-81
2023/01/05 01:45:28;;;;;;;28.25;7.72;;;;;;;8.40;100.00;101527.44;10458191;28;20051;-81
2023/01/05 01:50:31;;;;;;;19.65;6.55;;;;;;;8.39;100.00;101533.44;10450422;28;20041;-81
2023/01/05 01:55:31;;;;;;;29.88;6.97;;;;;;;8.33;100.00;101539.16;10447890;28;20063;-81
2023/01/05 02:00:32;;;;;;;23.52;7.07;;;;;;;8.27;100.00;101545.66;10428858;28;20116;-81
2023/01/05 02:05:33;;;;;;;22.15;6.88;;;;;;;8.27;100.00;101559.63;10456079;28;20039;-80
2023/01/05 02:10:45;;;;;;;31.98;10.00;;;;;;;8.40;100.00;101552.63;10437706;28;20037;-80
2023/01/05 02:15:54;;;;;;;29.67;8.15;;;;;;;8.57;100.00;101559.91;10462600;28;20443;-81
2023/01/05 02:21:00;;;;;;;24.23;8.88;;;;;;;8.71;100.00;101557.31;10442098;28;20634;-81
2023/01/05 02:26:22;;;;;;;33.08;9.88;;;;;;;8.83;100.00;101555.50;10462330;28;20567;-81
2023/01/05 02:31:55;;;;;;;22.70;7.40;;;;;;;8.84;100.00;101549.50;10457981;28;20052;-82
2023/01/05 02:36:57;;;;;;;;;;;;;;;8.91;100.00;101556.00;10401051;28;20052;-81
2023/01/05 02:42:15;;;;;;;35.67;11.18;;;;;;;8.93;100.00;101554.41;10486262;28;19921;-81
2023/01/05 02:47:28;;;;;;;23.08;8.48;;;;;;;9.00;100.00;101546.16;10405793;28;20049;-82
2023/01/05 02:52:30;;;;;;;27.63;8.55;;;;;;;9.01;100.00;101547.06;10444285;28;20052;-81
2023/01/05 02:57:49;;;;;;;22.20;8.63;;;;;;;9.00;100.00;101550.50;10418502;28;20036;-81
2023/01/05 03:02:52;;;;;;;31.40;8.07;;;;;;;9.02;100.00;101546.28;10451841;28;20055;-82
2023/01/05 03:07:53;;;;;;;20.38;7.65;;;;;;;8.99;100.00;101552.19;10437004;28;20049;-81
2023/01/05 03:18:16;;;;;;;22.27;6.50;;;;;;;9.05;100.00;101543.88;10457404;28;20032;-81
2023/01/05 03:39:26;;;;;;;21.88;6.00;;;;;;;8.98;100.00;101567.78;10456234;28;20098;-81
2023/01/05 03:44:26;;;;;;;33.95;8.48;;;;;;;8.95;100.00;101579.81;10448614;28;20131;-82
2023/01/05 03:49:27;;;;;;;20.02;6.00;;;;;;;8.92;100.00;101582.22;10469879;28;20487;-82
2023/01/05 03:54:27;;;;;;;17.55;8.55;;;;;;;8.89;100.00;101575.88;10448047;28;20171;-81
2023/01/05 03:59:28;;;;;;;25.05;8.38;;;;;;;8.88;100.00;101569.78;10450389;28;20059;-80
2023/01/05 04:04:28;;;;;;;21.92;7.45;;;;;;;8.86;100.00;101568.78;10469985;28;20119;-81
2023/01/05 04:09:29;;;;;;;33.20;8.25;;;;;;;8.87;100.00;101580.09;10479920;28;20040;-81
2023/01/05 04:14:29;;;;;;;30.77;9.77;;;;;;;8.96;100.00;101579.00;10462143;28;20043;-81
2023/01/05 04:19:30;;;;;;;22.70;8.38;;;;;;;8.91;100.00;101584.72;10446259;28;20489;-80
2023/01/05 04:24:30;;;;;;;31.55;7.45;;;;;;;8.91;100.00;101592.56;10438668;28;20267;-81
2023/01/05 04:29:31;;;;;;;30.00;6.97;;;;;;;8.94;100.00;101592.75;10471274;28;20045;-80
2023/01/05 04:34:31;;;;;;;29.48;7.90;;;;;;;8.92;100.00;101587.44;10453281;28;20057;-81
2023/01/05 04:39:32;;;;;;;28.38;6.35;;;;;;;8.87;100.00;101585.31;10452503;28;20041;-81
2023/01/05 04:44:32;;;;;;;27.92;7.38;;;;;;;8.83;100.00;101599.88;10479477;28;20036;-81
2023/01/05 04:49:33;;;;;;;28.45;8.10;;;;;;;8.80;100.00;101587.53;10457582;28;20045;-80
2023/01/05 04:54:33;;;;;;;23.40;7.07;;;;;;;8.79;100.00;101603.09;10455370;28;20037;-81
2023/01/05 04:59:34;;;;;;;26.38;9.23;;;;;;;8.79;100.00;101597.88;10467001;28;20064;-81
2023/01/05 05:04:34;;;;;;;18.38;7.38;;;;;;;8.60;100.00;101604.47;10463248;28;20037;-82
2023/01/05 05:09:41;;;;;;;25.50;6.88;;;;;;;8.49;100.00;101608.06;10428878;28;20489;-80
2023/01/05 05:14:41;;;;;;;26.25;10.30;;;;;;;8.46;100.00;101613.94;10453811;28;20098;-82
2023/01/05 05:19:42;;;;;;;34.40;8.45;;;;;;;8.51;100.00;101611.69;10450070;28;20121;-81
2023/01/05 05:24:43;;;;;;;24.35;7.43;;;;;;;8.56;100.00;101622.41;10450624;28;20041;-81
2023/01/05 05:29:43;;;;;;;34.00;7.35;;;;;;;8.59;100.00;101630.44;10456578;28;20077;-81
2023/01/05 05:34:44;;;;;;;38.25;8.52;;;;;;;8.59;100.00;101623.53;10448155;28;20049;-83
2023/01/05 05:39:44;;;;;;;36.20;7.97;;;;;;;8.62;100.00;101631.56;10476539;28;20080;-79
2023/01/05 05:44:45;;;;;;;28.65;9.00;;;;;;;8.70;100.00;101631.19;10461070;28;20120;-79
2023/01/05 05:49:45;;;;;;;30.27;7.18;;;;;;;8.73;100.00;101642.72;10438237;28;20377;-81
2023/01/05 05:54:46;;;;;;;23.67;7.78;;;;;;;8.73;100.00;101649.66;10460424;28;20044;-80
2023/01/05 05:59:46;;;;;;;26.20;8.45;;;;;;;8.77;100.00;101646.47;10459576;28;20112;-80
2023/01/05 06:04:47;;;;;;;31.50;9.98;;;;;;;8.77;100.00;101654.28;10437470;28;20484;-80
2023/01/05 06:09:47;;;;;;;18.73;6.65;;;;;;;8.83;100.00;101657.31;10449091;28;20052;-80
2023/01/05 06:14:48;;;;;;;29.30;8.65;;;;;;;8.87;100.00;101666.25;10454122;28;20037;-80
2023/01/05 06:19:48;;;;;;;29.77;9.20;;;;;;;8.89;100.00;101685.53;10444642;28;20063;-81
2023/01/05 06:24:49;;;;;;;33.78;9.35;;;;;;;8.91;100.00;101694.38;10444162;28;20048;-81
2023/01/05 06:29:49;;;;;;;42.83;11.95;;;;;;;8.88;100.00;101687.25;10447271;28;20124;-80
2023/01/05 06:34:50;;;;;;;34.67;8.27;;;;;;;8.93;100.00;101687.53;10445428;28;20137;-80
2023/01/05 06:39:50;;;;;;;35.90;7.20;;;;;;;8.88;100.00;101689.88;10447733;28;20053;-81
2023/01/05 06:44:51;;;;;;;21.17;8.07;;;;;;;8.90;100.00;101695.16;10448511;28;20361;-80
2023/01/05 06:49:51;;;;;;;28.55;10.85;;;;;;;8.85;100.00;101704.41;10460003;28;20129;-81
2023/01/05 06:54:52;;;;;;;31.90;7.65;;;;;;;8.78;100.00;101703.97;10429943;28;20396;-80
2023/01/05 06:59:52;;;;;;;30.00;10.68;;;;;;;8.79;100.00;101708.41;10405442;28;20053;-79
2023/01/05 07:04:53;;;;;;;30.10;9.43;;;;;;;8.76;100.00;101725.56;10400555;28;20124;-80
2023/01/05 07:09:53;;;;;;;25.58;10.43;;;;;;;8.78;100.00;101723.97;10395185;28;20367;-80
2023/01/05 07:14:54;;;;;;;23.27;9.00;;;;;;;8.78;100.00;101735.28;10400338;28;20103;-80
2023/01/05 07:19:54;;;;;;;27.23;8.30;;;;;;;8.77;100.00;101733.50;10384194;28;20085;-79
2023/01/05 07:24:57;;;;;;;26.77;9.85;;;;;;;8.74;100.00;101732.38;10387894;28;20115;-79
2023/01/05 07:29:57;;;;;;;;;;;;;;;8.69;100.00;101733.78;10425867;28;20045;-78
2023/01/05 07:34:58;;;;;;;28.70;7.15;;;;;;;8.67;100.00;101731.03;10421638;28;20357;-79
2023/01/05 07:39:58;;;;;;;32.47;8.07;;;;;;;8.58;100.00;101735.63;10396315;28;20474;-78
2023/01/05 07:44:59;;;;;;;25.85;8.65;;;;;;;8.57;100.00;101745.16;10401158;28;20091;-80
2023/01/05 07:49:59;;;;;;;36.47;13.20;;;;;;;8.59;100.00;101758.31;10397459;28;20470;-80
2023/01/05 07:55:00;;;;;;;30.15;11.05;;;;;;;8.58;100.00;101760.03;10395779;28;20041;-80
2023/01/05 08:00:01;;;;;;;30.77;10.38;;;;;;;8.64;100.00;101769.97;10377049;28;20052;-79
2023/01/05 08:05:01;;;;;;;27.27;9.80;;;;;;;8.71;100.00;101780.03;10409504;28;20452;-80
2023/01/05 08:15:21;;;;;;;38.50;11.80;;;;;;;8.81;100.00;101785.09;10372721;28;20034;-80
2023/01/05 08:20:22;;;;;;;35.08;10.52;;;;;;;8.80;100.00;101782.41;10389684;28;20105;-79
2023/01/05 08:25:22;;;;;;;36.08;10.98;;;;;;;8.84;100.00;101780.91;10401150;28;20378;-79
2023/01/05 08:30:23;;;;;;;37.80;10.07;;;;;;;8.87;100.00;101782.03;10440454;28;20041;-80
2023/01/05 08:35:23;;;;;;;31.08;10.77;;;;;;;8.93;100.00;101786.75;10450424;28;20234;-80
2023/01/05 08:40:24;;;;;;;31.10;10.88;;;;;;;8.98;100.00;101790.59;10448860;28;20526;-79
2023/01/05 08:45:24;;;;;;;29.40;10.02;;;;;;;8.98;100.00;101793.19;10408685;28;20054;-79
2023/01/05 08:50:25;;;;;;;35.90;13.25;;;;;;;9.14;100.00;101796.88;10429530;28;20093;-79
2023/01/05 08:55:25;;;;;;;31.33;12.05;;;;;;;9.17;100.00;101794.47;10434706;28;20047;-79
2023/01/05 09:00:26;;;;;;;28.10;8.77;;;;;;;9.17;100.00;101800.59;10427948;28;20048;-80
2023/01/05 09:05:26;;;;;;;31.65;10.52;;;;;;;9.28;100.00;101814.38;10396023;28;20095;-81
2023/01/05 09:10:27;;;;;;;26.60;9.38;;;;;;;9.42;100.00;101822.25;10399900;28;20552;-81
2023/01/05 09:15:27;;;;;;;32.47;10.02;;;;;;;9.58;100.00;101821.59;10381571;28;20041;-82
2023/01/05 09:20:28;;;;;;;41.10;13.45;;;;;;;9.65;100.00;101826.44;10382506;28;20125;-80
2023/01/05 09:25:28;;;;;;;38.63;11.90;;;;;;;9.62;100.00;101829.72;10389943;28;20057;-82
2023/01/05 09:30:29;;;;;;;21.48;9.30;;;;;;;9.61;100.00;101833.13;10417630;28;20082;-82
2023/01/05 09:35:29;;;;;;;25.45;10.15;;;;;;;9.58;100.00;101850.34;10412165;28;20048;-83
2023/01/05 09:40:31;;;;;;;34.15;10.90;;;;;;;9.66;100.00;101849.16;10416595;28;20061;-84
2023/01/05 09:45:32;;;;;;;27.23;9.68;;;;;;;9.74;100.00;101862.72;10405896;28;20033;-81
2023/01/05 09:50:32;;;;;;;27.55;10.05;;;;;;;9.86;100.00;101867.88;10395467;28;20041;-81
2023/01/05 09:55:33;;;;;;;32.13;10.48;;;;;;;9.77;100.00;101876.00;10408102;28;20071;-82
2023/01/05 10:00:34;;;;;;;33.47;9.57;;;;;;;9.68;100.00;101885.03;10379450;28;20111;-81
2023/01/05 10:05:38;;;;;;;30.50;8.75;;;;;;;9.81;100.00;101884.16;10388016;28;20095;-82
2023/01/05 10:10:44;;;;;;;31.35;8.30;;;;;;;9.79;100.00;101882.22;10421274;28;20033;-82
2023/01/05 10:15:47;;;;;;;36.08;11.18;;;;;;;9.98;100.00;101876.53;10423519;28;20068;-82
2023/01/05 10:21:11;;;;;;;22.58;7.75;;;;;;;10.01;100.00;101879.34;10439543;28;20087;-82
2023/01/05 10:26:19;;;;;;;29.77;9.55;;;;;;;10.00;100.00;101882.78;10422805;28;20086;-81
2023/01/05 10:31:38;;;;;;;24.92;8.00;;;;;;;10.14;100.00;101887.22;10451454;28;20044;-81
2023/01/05 10:36:52;;;;;;;33.15;10.70;;;;;;;10.32;100.00;101891.84;10453068;28;20040;-81
2023/01/05 10:42:33;;;;;;;28.45;10.63;;;;;;;10.64;100.00;101892.13;10385453;28;20038;-81
2023/01/05 10:47:35;;;;;;;22.48;8.93;;;;;;;10.55;100.00;101898.56;10384266;28;20512;-79
2023/01/05 10:52:35;;;;;;;22.17;8.48;;;;;;;10.64;100.00;101903.50;10438264;28;20119;-81
2023/01/05 10:57:39;;;;;;;23.08;10.55;;;;;;;10.65;100.00;101899.16;10446310;28;20040;-81
2023/01/05 11:02:50;;;;;;;33.70;9.45;;;;;;;10.48;100.00;101892.84;10451551;28;20480;-80
2023/01/05 11:08:26;;;;;;;43.78;13.18;;;;;;;10.52;100.00;101892.25;10460609;28;20045;-82
2023/01/05 11:13:29;;;;;;;22.40;9.48;;;;;;;10.62;100.00;101891.09;10356914;28;20102;-81
2023/01/05 11:18:44;;;;;;;38.72;10.55;;;;;;;10.71;100.00;101887.38;10467439;28;20055;-81
2023/01/05 11:23:46;;;;;;;34.28;9.95;;;;;;;10.64;100.00;101902.59;10460664;28;20036;-81
2023/01/05 11:28:58;;;;;;;35.13;12.38;;;;;;;10.75;100.00;101904.16;10465725;28;20102;-81
2023/01/05 11:34:13;;;;;;;28.17;10.43;;;;;;;10.48;100.00;101912.06;10470903;28;20041;-81
2023/01/05 11:39:18;;;;;;;34.05;10.70;;;;;;;10.27;100.00;101911.56;10386686;28;20485;-80
2023/01/05 11:44:22;;;;;;;29.98;9.25;;;;;;;10.34;100.00;101913.78;10407006;28;20465;-81
2023/01/05 11:49:22;;;;;;;42.05;11.38;;;;;;;10.44;100.00;101907.44;10432417;28;20032;-79
2023/01/05 11:54:35;;;;;;;36.20;15.35;;;;;;;10.42;100.00;101889.03;10372348;28;20041;-78
2023/01/05 11:59:36;;;;;;;32.63;10.98;;;;;;;10.69;100.00;101881.13;10420823;28;20148;-81
2023/01/05 12:04:49;;;;;;;28.60;9.98;;;;;;;11.42;100.00;101871.59;10435665;28;20505;-79
2023/01/05 12:09:58;;;;;;;27.67;11.88;;;;;;;11.85;100.00;101866.28;10417296;28;20044;-78
2023/01/05 12:15:26;;;;;;;22.38;8.85;;;;;;;11.91;100.00;101870.97;10416954;28;20052;-77
2023/01/05 12:20:46;;;;;;;27.63;11.93;;;;;;;11.95;100.00;101872.06;10469246;28;20562;-78
2023/01/05 12:25:59;;;;;;;27.38;11.30;;;;;;;11.98;100.00;101865.25;10433900;28;20418;-79
2023/01/05 12:31:04;;;;;;;;;;;;;;;12.28;100.00;101874.84;10389938;28;20058;-80
2023/01/05 12:36:45;;;;;;;26.13;11.45;;;;;;;13.60;100.00;101860.88;10428861;28;19925;-79
2023/01/05 12:42:17;;;;;;;22.50;11.18;;;;;;;13.56;100.00;101856.28;10424336;28;20060;-77
2023/01/05 12:47:46;;;;;;;27.52;9.25;;;;;;;13.04;100.00;101852.69;10429398;28;20075;-77
2023/01/05 12:52:48;;;;;;;28.95;7.90;;;;;;;12.12;100.00;101857.31;10432585;28;20045;-79
2023/01/05 12:57:53;;;;;;;29.58;8.05;;;;;;;11.40;100.00;101866.25;10425243;28;20071;-77
2023/01/05 13:02:59;;;;;;;31.65;10.68;;;;;;;10.92;100.00;101867.66;10466019;28;20045;-81
2023/01/05 13:08:08;;;;;;;28.92;8.25;;;;;;;10.38;100.00;101859.91;10417457;28;20041;-80
2023/01/05 13:13:11;;;;;;;19.25;10.48;;;;;;;10.29;100.00;101871.59;10446421;28;20056;-79
2023/01/05 13:18:16;;;;;;;23.23;9.68;;;;;;;10.33;100.00;101866.56;10410607;28;20044;-81
2023/01/05 13:23:20;;;;;;;20.00;9.15;;;;;;;10.28;100.00;101866.28;10398258;28;20363;-81
2023/01/05 13:28:22;;;;;;;28.15;11.00;;;;;;;10.25;100.00;101860.84;10419565;28;20036;-80
2023/01/05 13:33:44;;;;;;;26.27;11.20;;;;;;;10.31;100.00;101862.94;10453116;28;20485;-81
2023/01/05 13:38:53;;;;;;;31.02;10.82;;;;;;;10.70;100.00;101862.00;10456670;28;20087;-82
2023/01/05 13:44:25;;;;;;;24.98;8.70;;;;;;;11.24;100.00;101868.75;10431547;28;20041;-81
2023/01/05 13:49:59;;;;;;;31.53;8.63;;;;;;;10.97;100.00;101866.25;10434272;28;20036;-80
2023/01/05 13:55:01;;;;;;;26.92;10.40;;;;;;;10.62;100.00;101880.63;10442277;28;20045;-81
2023/01/05 14:00:07;;;;;;;36.63;8.88;;;;;;;10.39;100.00;101875.75;10398569;28;20148;-81
2023/01/05 14:05:30;;;;;;;38.05;9.70;;;;;;;10.31;100.00;101868.16;10404171;28;20127;-82
2023/01/05 14:10:32;;;;;;;26.90;9.38;;;;;;;10.18;100.00;101871.72;10403205;28;20037;-81
2023/01/05 14:15:40;;;;;;;20.57;8.50;;;;;;;10.23;100.00;101873.81;10369371;28;20556;-82
2023/01/05 14:20:48;;;;;;;28.60;9.68;;;;;;;10.12;100.00;101877.44;10451260;28;20037;-80
2023/01/05 14:25:56;;;;;;;28.50;9.05;;;;;;;10.09;100.00;101885.06;10456732;28;20033;-80
2023/01/05 14:31:17;;;;;;;22.55;8.10;;;;;;;10.01;100.00;101881.03;10462468;28;20079;-81
2023/01/05 14:36:33;;;;;;;30.73;8.47;;;;;;;9.95;100.00;101884.19;10464918;28;20464;-80
2023/01/05 14:41:33;;;;;;;22.67;7.65;;;;;;;9.95;100.00;101866.75;10470190;28;20037;-81
2023/01/05 14:46:53;;;;;;;38.83;9.93;;;;;;;9.90;100.00;101872.50;10462808;28;20026;-80
2023/01/05 14:51:58;;;;;;;22.77;8.48;;;;;;;9.82;100.00;101879.81;10441172;28;20109;-81
2023/01/05 14:57:30;;;;;;;35.90;9.15;;;;;;;9.65;100.00;101886.53;10430833;28;20033;-81
2023/01/05 15:02:35;;;;;;;25.00;9.90;;;;;;;9.55;100.00;101891.16;10442127;28;20048;-81
2023/01/05 15:07:58;;;;;;;38.38;11.10;;;;;;;9.51;100.00;101893.44;10463126;28;20420;-81
2023/01/05 15:12:58;;;;;;;28.00;8.68;;;;;;;9.51;100.00;101894.34;10441401;28;20093;-81
2023/01/05 15:17:59;;;;;;;32.03;7.60;;;;;;;9.61;100.00;101901.09;10460526;28;20041;-81
2023/01/05 15:23:37;;;;;;;28.70;8.52;;;;;;;9.61;100.00;101893.25;10430440;28;20060;-79
2023/01/05 15:28:56;;;;;;;18.17;8.30;;;;;;;9.53;100.00;101890.13;10434973;28;20550;-81
2023/01/05 15:34:35;;;;;;;23.65;7.25;;;;;;;9.42;100.00;101900.63;10459938;28;20041;-80
2023/01/05 15:39:48;;;;;;;33.75;7.60;;;;;;;9.19;100.00;101902.56;10440089;28;20106;-80
2023/01/05 15:44:49;;;;;;;24.40;7.15;;;;;;;9.06;100.00;101900.81;10425959;28;20107;-81
2023/01/05 15:49:50;;;;;;;38.25;7.68;;;;;;;9.03;100.00;101895.38;10479126;28;20416;-81
2023/01/05 15:54:59;;;;;;;15.02;7.20;;;;;;;8.99;100.00;101899.47;10407662;28;20088;-81
2023/01/05 15:59:59;;;;;;;28.33;6.63;;;;;;;8.93;100.00;101906.84;10424497;28;20124;-80
2023/01/05 16:05:17;;;;;;;29.40;6.63;;;;;;;8.76;100.00;101906.56;10486506;28;20042;-81
2023/01/05 16:10:19;;;;;;;21.55;8.70;;;;;;;8.72;100.00;101906.25;10469645;28;20086;-82
2023/01/05 16:15:20;;;;;;;22.10;6.28;;;;;;;8.73;100.00;101910.66;10392911;28;20516;-83
2023/01/05 16:20:23;;;;;;;23.45;7.97;;;;;;;8.62;100.00;101896.84;10466482;28;20049;-80
2023/01/05 16:25:25;;;;;;;27.83;7.75;;;;;;;8.54;100.00;101905.81;10424596;28;20099;-81
2023/01/05 16:30:28;;;;;;;;;;;;;;;8.55;100.00;101910.22;10423279;28;20034;-82
2023/01/05 16:35:39;;;;;;;38.03;11.82;;;;;;;8.47;100.00;101899.22;10463522;28;19916;-82
2023/01/05 16:40:49;;;;;;;22.52;8.38;;;;;;;8.27;100.00;101897.75;10432926;28;20131;-81
2023/01/05 16:45:51;;;;;;;30.08;11.27;;;;;;;8.18;100.00;101900.59;10462930;28;20049;-82
2023/01/05 16:50:53;;;;;;;35.00;10.93;;;;;;;8.17;100.00;101886.63;10409548;28;20484;-82
2023/01/05 16:55:54;;;;;;;27.17;9.32;;;;;;;8.15;100.00;101885.63;10439155;28;20056;-81
2023/01/05 17:01:14;;;;;;;30.30;13.48;;;;;;;8.16;100.00;101889.16;10422631;28;20165;-82
2023/01/05 17:06:20;;;;;;;35.97;10.63;;;;;;;8.21;100.00;101890.41;10439454;28;20048;-81
2023/01/05 17:11:21;;;;;;;31.23;12.88;;;;;;;8.18;100.00;101887.56;10437309;28;20445;-80
2023/01/05 17:16:21;;;;;;;23.40;10.27;;;;;;;8.14;100.00;101885.53;10403067;28;20037;-80
2023/01/05 17:21:23;;;;;;;34.55;11.40;;;;;;;8.12;100.00;101879.28;10438738;28;20117;-81
2023/01/05 17:26:27;;;;;;;28.55;10.23;;;;;;;8.18;100.00;101884.94;10421299;28;20065;-81
2023/01/05 17:31:27;;;;;;;36.78;9.82;;;;;;;8.22;100.00;101893.09;10421537;28;20052;-84
2023/01/05 17:36:30;;;;;;;25.23;10.13;;;;;;;8.23;100.00;101886.19;10411426;28;20188;-82
2023/01/05 17:41:30;;;;;;;29.80;10.60;;;;;;;8.26;100.00;101885.50;10417503;28;20056;-78
2023/01/05 17:46:32;;;;;;;22.10;8.80;;;;;;;8.35;100.00;101883.56;10434382;28;20041;-78
2023/01/05 17:51:32;;;;;;;23.97;10.33;;;;;;;8.41;100.00;101890.94;10453209;28;20037;-79
2023/01/05 17:56:33;;;;;;;26.10;10.32;;;;;;;8.48;100.00;101882.78;10421528;28;20280;-79
2023/01/05 18:01:34;;;;;;;35.22;14.60;;;;;;;8.49;100.00;101877.69;10436349;28;20036;-78
2023/01/05 18:06:34;;;;;;;24.70;13.30;;;;;;;8.51;100.00;101872.59;10445538;28;20123;-79
2023/01/05 18:11:35;;;;;;;23.10;13.70;;;;;;;8.66;100.00;101871.09;10433571;28;20117;-78
2023/01/05 18:16:35;;;;;;;29.08;13.82;;;;;;;8.66;100.00;101872.75;10430104;28;20042;-78
2023/01/05 18:21:36;;;;;;;35.03;14.68;;;;;;;8.70;100.00;101861.75;10393020;28;20140;-79
2023/01/05 18:26:36;;;;;;;23.38;14.80;;;;;;;8.74;100.00;101845.50;10397776;28;20098;-78
2023/01/05 18:31:37;;;;;;;34.45;16.65;;;;;;;8.75;100.00;101849.94;10483027;28;20028;-78
2023/01/05 18:36:37;;;;;;;26.70;14.48;;;;;;;8.71;100.00;101849.63;10482012;28;20029;-79
2023/01/05 18:41:38;;;;;;;28.63;15.63;;;;;;;8.78;100.00;101850.16;10425723;28;20064;-79
2023/01/05 18:46:38;;;;;;;23.98;16.48;;;;;;;8.85;100.00;101845.34;10427231;28;20069;-79
2023/01/05 18:51:39;;;;;;;28.85;17.45;;;;;;;8.96;100.00;101841.78;10422596;28;20400;-79
2023/01/05 18:56:39;;;;;;;34.47;15.70;;;;;;;8.95;100.00;101834.75;10458885;28;20045;-77
2023/01/05 19:01:41;;;;;;;22.52;14.25;;;;;;;9.04;100.00;101824.97;10449370;28;20048;-78
2023/01/05 19:06:42;;;;;;;28.10;15.40;;;;;;;9.00;100.00;101819.44;10443788;28;20090;-78
2023/01/05 19:11:44;;;;;;;30.52;15.10;;;;;;;9.04;100.00;101824.06;10431373;28;20041;-79
2023/01/05 19:16:47;;;;;;;29.83;17.23;;;;;;;9.07;100.00;101821.66;10429656;28;20039;-79
2023/01/05 19:21:48;;;;;;;25.92;15.48;;;;;;;9.04;100.00;101819.75;10482040;28;20051;-79
2023/01/05 19:26:49;;;;;;;29.90;15.90;;;;;;;9.10;100.00;101814.03;10486047;28;20035;-79
2023/01/05 19:31:49;;;;;;;25.98;15.57;;;;;;;9.13;100.00;101815.94;10449299;28;20072;-78
2023/01/05 19:36:50;;;;;;;19.45;13.90;;;;;;;9.20;100.00;101811.25;10454582;28;20045;-80
2023/01/05 19:41:50;;;;;;;21.80;13.65;;;;;;;9.23;100.00;101818.38;10428531;28;20049;-78
2023/01/05 19:46:52;;;;;;;23.52;15.20;;;;;;;9.24;100.00;101818.50;10443829;28;20447;-79
2023/01/05 19:51:53;;;;;;;21.48;13.85;;;;;;;9.31;100.00;101814.59;10469181;28;20404;-79
2023/01/05 19:56:53;;;;;;;22.05;13.57;;;;;;;9.34;100.00;101813.91;10485986;28;20063;-79
2023/01/05 20:01:54;;;;;;;26.35;16.55;;;;;;;9.38;100.00;101813.31;10445233;28;20359;-79
2023/01/05 20:06:55;;;;;;;20.58;13.77;;;;;;;9.37;100.00;101817.63;10410190;28;20096;-78
2023/01/05 20:11:55;;;;;;;19.80;13.48;;;;;;;9.44;100.00;101808.50;10455094;28;21672;-79
2023/01/05 20:16:58;;;;;;;21.48;12.98;;;;;;;9.39;100.00;101812.50;10417111;28;20036;-79
2023/01/05 20:21:59;;;;;;;20.20;12.68;;;;;;;9.38;100.00;101811.59;10452471;28;20162;-79
2023/01/05 20:27:06;;;;;;;18.85;13.00;;;;;;;9.43;100.00;101811.00;10469006;28;20068;-79
2023/01/05 20:32:17;;;;;;;17.10;11.52;;;;;;;9.50;100.00;101810.59;10445502;28;20041;-79
2023/01/05 20:37:18;;;;;;;15.87;10.30;;;;;;;9.56;100.00;101811.03;10467724;28;20064;-79
2023/01/05 20:42:18;;;;;;;13.10;10.02;;;;;;;9.55;100.00;101807.50;10391455;28;20120;-78
2023/01/05 20:47:19;;;;;;;18.67;12.13;;;;;;;9.51;100.00;101815.97;10444926;28;20526;-79
2023/01/05 20:52:19;;;;;;;15.20;10.18;;;;;;;9.55;100.00;101809.22;10443799;28;20048;-78
2023/01/05 20:57:20;;;;;;;16.75;11.55;;;;;;;9.54;100.00;101810.00;10459307;28;20492;-78
2023/01/05 21:02:21;;;;;;;16.38;12.45;;;;;;;9.45;100.00;101805.09;10467928;28;20556;-79
2023/01/05 21:07:21;;;;;;;14.98;10.18;;;;;;;9.31;100.00;101801.53;10466357;28;20120;-81
2023/01/05 21:12:22;;;;;;;16.00;10.40;;;;;;;9.13;100.00;101801.19;10442383;28;20495;-80
2023/01/05 21:17:22;;;;;;;18.23;10.75;;;;;;;9.11;100.00;101808.91;10443720;28;20047;-80
2023/01/05 21:22:23;;;;;;;16.45;10.52;;;;;;;9.18;100.00;101814.56;10478448;28;20418;-80
2023/01/05 21:27:23;;;;;;;14.75;11.15;;;;;;;9.22;100.00;101803.53;10483918;28;20072;-80
2023/01/05 21:32:24;;;;;;;17.10;9.50;;;;;;;9.24;100.00;101797.63;10449641;28;20135;-79
2023/01/05 21:37:24;;;;;;;13.90;8.52;;;;;;;9.26;100.00;101800.31;10445751;28;20040;-80
2023/01/05 21:42:41;;;;;;;12.43;8.32;;;;;;;9.26;100.00;101808.16;10468028;28;20480;-80
2023/01/05 21:47:41;;;;;;;17.38;8.65;;;;;;;9.27;100.00;101804.72;10482798;28;20056;-79
2023/01/05 21:58:01;;;;;;;12.77;6.80;;;;;;;9.37;100.00;101783.66;10443037;28;20435;-80
2023/01/05 22:03:01;;;;;;;9.82;5.97;;;;;;;9.41;100.00;101776.94;10465303;28;20110;-79
2023/01/05 22:08:02;;;;;;;9.80;4.82;;;;;;;9.43;100.00;101775.34;10449021;28;20045;-79
2023/01/05 22:13:04;;;;;;;11.43;5.68;;;;;;;9.43;100.00;101770.13;10419868;28;20065;-79
2023/01/05 22:18:05;;;;;;;22.38;5.35;;;;;;;9.45;100.00;101768.50;10417680;28;20036;-78
2023/01/05 22:23:06;;;;;;;14.05;3.83;;;;;;;9.39;100.00;101765.47;10447049;28;20484;-79
2023/01/05 22:28:06;;;;;;;10.80;4.28;;;;;;;9.38;100.00;101746.28;10417105;28;20043;-80
2023/01/05 22:33:07;;;;;;;9.57;3.50;;;;;;;9.45;100.00;101752.81;10425427;28;20036;-80
2023/01/05 22:38:07;;;;;;;10.82;4.47;;;;;;;9.42;100.00;101746.47;10427509;28;20124;-80
2023/01/05 22:43:08;;;;;;;8.32;3.55;;;;;;;9.42;100.00;101743.88;10416860;28;20507;-79
2023/01/05 22:48:09;;;;;;;7.35;3.53;;;;;;;9.45;100.00;101745.00;10400279;28;20044;-81
2023/01/05 22:53:10;;;;;;;8.02;3.03;;;;;;;9.46;100.00;101741.56;10398487;28;20421;-79
2023/01/05 22:58:10;;;;;;;6.53;2.80;;;;;;;9.44;100.00;101739.66;10399070;28;20037;-79
2023/01/05 23:03:11;;;;;;;10.13;3.95;;;;;;;9.44;100.00;101740.56;10413737;28;20041;-80
2023/01/05 23:08:11;;;;;;;6.03;2.97;;;;;;;9.46;100.00;101748.50;10394179;28;20137;-80
2023/01/05 23:13:12;;;;;;;5.47;2.85;;;;;;;9.42;100.00;101750.00;10426450;28;20040;-81
2023/01/05 23:18:12;;;;;;;5.85;2.97;;;;;;;9.37;100.00;101751.41;10438108;28;20045;-80
2023/01/05 23:23:13;;;;;;;6.10;2.85;;;;;;;9.40;100.00;101749.00;10398526;28;20120;-80
2023/01/05 23:28:16;;;;;;;7.38;2.65;;;;;;;9.39;100.00;101745.47;10406273;28;20377;-80
2023/01/05 23:33:18;;;;;;;7.25;2.85;;;;;;;9.38;100.00;101741.06;10403453;28;20081;-80
2023/01/05 23:38:19;;;;;;;8.20;3.10;;;;;;;9.33;100.00;101731.13;10372253;28;20233;-81
2023/01/05 23:43:21;;;;;;;4.53;2.38;;;;;;;9.36;100.00;101724.38;10360132;28;20178;-80